Time,TemperatureF,DewpointF,PressureIn,WindDirection,WindDirectionDegrees,WindSpeedMPH,WindSpeedGustMPH,Humidity,HourlyPrecipIn,Conditions,Clouds,dailyrainin,SolarRadiationWatts/m^2,SoftwareType,DateUTC
2013-02-06 00:01:00,37.0,32.0,-100.00,West,262,4.0,6.0,82,0.00,,,0.00,0.000000,,2013-02-06 07:01:00,
2013-02-06 00:11:00,37.0,32.0,-100.00,West,262,4.0,6.0,82,0.00,,,0.00,0.000000,,2013-02-06 07:11:00,
2013-02-06 00:21:00,37.0,32.0,-100.00,West,262,4.0,6.0,82,0.00,,,0.00,0.000000,,2013-02-06 07:21:00,
2013-02-06 00:32:00,37.0,32.0,-100.00,West,262,4.0,6.0,82,0.00,,,0.00,0.000000,,2013-02-06 07:32:00,
2013-02-06 01:01:00,37.0,32.0,-100.00,West,261,4.0,6.0,81,0.00,,,0.00,0.000000,,2013-02-06 08:01:00,
2013-02-06 01:11:00,37.0,32.0,-100.00,West,261,4.0,6.0,81,0.00,,,0.00,0.000000,,2013-02-06 08:11:00,
2013-02-06 01:21:00,37.0,32.0,-100.00,West,261,4.0,6.0,81,0.00,,,0.00,0.000000,,2013-02-06 08:21:00,
2013-02-06 01:31:00,37.0,32.0,-100.00,West,261,4.0,6.0,81,0.00,,,0.00,0.000000,,2013-02-06 08:31:00,
2013-02-06 02:01:00,36.0,32.0,-100.00,West,267,4.0,8.0,85,0.00,,,0.00,0.000000,,2013-02-06 09:01:00,
2013-02-06 02:11:00,36.0,32.0,-100.00,West,267,4.0,8.0,85,0.00,,,0.00,0.000000,,2013-02-06 09:11:00,
2013-02-06 02:21:00,36.0,32.0,-100.00,West,267,4.0,8.0,85,0.00,,,0.00,0.000000,,2013-02-06 09:21:00,
2013-02-06 02:31:00,36.0,32.0,-100.00,West,267,4.0,8.0,85,0.00,,,0.00,0.000000,,2013-02-06 09:31:00,
2013-02-06 03:01:00,36.0,33.0,-100.00,WSW,249,5.0,8.0,87,0.00,,,0.00,0.000000,,2013-02-06 10:01:00,
2013-02-06 03:11:00,36.0,33.0,-100.00,WSW,249,5.0,8.0,87,0.00,,,0.00,0.000000,,2013-02-06 10:11:00,
2013-02-06 03:21:00,36.0,33.0,-100.00,WSW,249,5.0,8.0,87,0.00,,,0.00,0.000000,,2013-02-06 10:21:00,
2013-02-06 03:31:00,36.0,33.0,-100.00,WSW,249,5.0,8.0,87,0.00,,,0.00,0.000000,,2013-02-06 10:31:00,
2013-02-06 03:52:00,35.0,30.0,-100.00,WSW,244,6.0,11.0,83,0.00,,,0.00,0.000000,,2013-02-06 10:52:00,
2013-02-06 04:01:00,35.0,30.0,-100.00,WSW,244,6.0,11.0,83,0.00,,,0.00,0.000000,,2013-02-06 11:01:00,
2013-02-06 04:11:00,35.0,30.0,-100.00,WSW,244,6.0,11.0,83,0.00,,,0.00,0.000000,,2013-02-06 11:11:00,
2013-02-06 04:22:00,35.0,30.0,-100.00,WSW,244,6.0,11.0,83,0.00,,,0.00,0.000000,,2013-02-06 11:22:00,
2013-02-06 04:31:00,35.0,30.0,-100.00,WSW,244,6.0,11.0,83,0.00,,,0.00,0.000000,,2013-02-06 11:31:00,
2013-02-06 05:01:00,34.0,31.0,-100.00,WSW,245,5.0,9.0,87,0.00,,,0.00,0.000000,,2013-02-06 12:01:00,
2013-02-06 05:12:00,34.0,31.0,-100.00,WSW,245,5.0,9.0,87,0.00,,,0.00,0.000000,,2013-02-06 12:12:00,
2013-02-06 05:22:00,34.0,31.0,-100.00,WSW,245,5.0,9.0,87,0.00,,,0.00,0.000000,,2013-02-06 12:22:00,
2013-02-06 05:32:00,34.0,31.0,-100.00,WSW,245,5.0,9.0,87,0.00,,,0.00,0.000000,,2013-02-06 12:32:00,
2013-02-06 06:01:00,34.0,32.0,-100.00,WSW,246,4.0,9.0,93,0.00,,,-99.99,0.000000,,2013-02-06 13:01:00,
2013-02-06 06:11:00,34.0,32.0,-100.00,WSW,246,4.0,9.0,93,0.00,,,-99.99,0.000000,,2013-02-06 13:11:00,
2013-02-06 06:21:00,34.0,32.0,-100.00,WSW,246,4.0,9.0,93,0.00,,,-99.99,0.000000,,2013-02-06 13:21:00,
2013-02-06 06:31:00,34.0,32.0,-100.00,WSW,246,4.0,9.0,93,0.00,,,-99.99,0.000000,,2013-02-06 13:31:00,
2013-02-06 06:52:00,33.0,31.0,-100.00,WSW,250,4.0,7.0,93,0.00,,,0.00,0.000000,,2013-02-06 13:52:00,
2013-02-06 07:01:00,33.0,31.0,-100.00,WSW,250,4.0,7.0,93,0.00,,,0.00,0.000000,,2013-02-06 14:01:00,
2013-02-06 07:11:00,33.0,31.0,-100.00,WSW,250,4.0,7.0,93,0.00,,,0.00,0.000000,,2013-02-06 14:11:00,
2013-02-06 07:21:00,33.0,31.0,-100.00,WSW,250,4.0,7.0,93,0.00,,,0.00,0.000000,,2013-02-06 14:21:00,
2013-02-06 07:31:00,33.0,31.0,-100.00,WSW,250,4.0,7.0,93,0.00,,,0.00,0.000000,,2013-02-06 14:31:00,
2013-02-06 07:52:00,34.0,30.0,-100.00,WSW,258,5.0,8.0,84,0.00,,,0.00,11.000000,,2013-02-06 14:52:00,
2013-02-06 08:01:00,34.0,30.0,-100.00,WSW,258,5.0,8.0,84,0.00,,,0.00,11.000000,,2013-02-06 15:01:00,
2013-02-06 08:11:00,34.0,30.0,-100.00,WSW,258,5.0,8.0,84,0.00,,,0.00,11.000000,,2013-02-06 15:11:00,
2013-02-06 08:21:00,34.0,30.0,-100.00,WSW,258,5.0,8.0,84,0.00,,,0.00,11.000000,,2013-02-06 15:21:00,
2013-02-06 08:31:00,34.0,30.0,-100.00,WSW,258,5.0,8.0,84,0.00,,,0.00,11.000000,,2013-02-06 15:31:00,
2013-02-06 09:01:00,39.0,33.0,-100.00,WSW,245,4.0,6.0,79,0.00,,,0.00,133.000000,,2013-02-06 16:01:00,
2013-02-06 09:11:00,39.0,33.0,-100.00,WSW,245,4.0,6.0,79,0.00,,,0.00,133.000000,,2013-02-06 16:11:00,
2013-02-06 09:21:00,39.0,33.0,-100.00,WSW,245,4.0,6.0,79,0.00,,,0.00,133.000000,,2013-02-06 16:21:00,
2013-02-06 09:32:00,39.0,33.0,-100.00,WSW,245,4.0,6.0,79,0.00,,,0.00,133.000000,,2013-02-06 16:32:00,
2013-02-06 09:52:00,42.0,35.0,-100.00,WSW,241,4.0,7.0,75,0.00,,,0.00,252.000000,,2013-02-06 16:52:00,
2013-02-06 10:01:00,42.0,35.0,-100.00,WSW,241,4.0,7.0,75,0.00,,,0.00,252.000000,,2013-02-06 17:01:00,
2013-02-06 10:11:00,42.0,35.0,-100.00,WSW,241,4.0,7.0,75,0.00,,,0.00,252.000000,,2013-02-06 17:11:00,
2013-02-06 10:21:00,42.0,35.0,-100.00,WSW,241,4.0,7.0,75,0.00,,,0.00,252.000000,,2013-02-06 17:21:00,
2013-02-06 10:32:00,42.0,35.0,-100.00,WSW,241,4.0,7.0,75,0.00,,,0.00,252.000000,,2013-02-06 17:32:00,
2013-02-06 11:01:00,45.0,35.0,-100.00,SW,231,4.0,9.0,67,0.00,,,0.00,463.000000,,2013-02-06 18:01:00,
2013-02-06 11:11:00,45.0,35.0,-100.00,SW,231,4.0,9.0,67,0.00,,,0.00,463.000000,,2013-02-06 18:11:00,
2013-02-06 11:22:00,45.0,35.0,-100.00,SW,231,4.0,9.0,67,0.00,,,0.00,463.000000,,2013-02-06 18:22:00,
2013-02-06 11:32:00,45.0,35.0,-100.00,SW,231,4.0,9.0,67,0.00,,,0.00,463.000000,,2013-02-06 18:32:00,
2013-02-06 12:01:00,49.0,35.0,-100.00,SW,232,5.0,11.0,59,0.00,,,0.00,607.000000,,2013-02-06 19:01:00,
2013-02-06 12:11:00,49.0,35.0,-100.00,SW,232,5.0,11.0,59,0.00,,,0.00,607.000000,,2013-02-06 19:11:00,
2013-02-06 12:21:00,49.0,35.0,-100.00,SW,232,5.0,11.0,59,0.00,,,0.00,607.000000,,2013-02-06 19:21:00,
2013-02-06 12:31:00,49.0,35.0,-100.00,SW,232,5.0,11.0,59,0.00,,,0.00,607.000000,,2013-02-06 19:31:00,
2013-02-06 13:01:00,51.0,39.0,-100.00,SW,229,6.0,11.0,63,0.00,,,0.00,768.000000,,2013-02-06 20:01:00,
2013-02-06 13:11:00,51.0,39.0,-100.00,SW,229,6.0,11.0,63,0.00,,,0.00,768.000000,,2013-02-06 20:11:00,
2013-02-06 13:21:00,51.0,39.0,-100.00,SW,229,6.0,11.0,63,0.00,,,0.00,768.000000,,2013-02-06 20:21:00,
2013-02-06 13:31:00,51.0,39.0,-100.00,SW,229,6.0,11.0,63,0.00,,,0.00,768.000000,,2013-02-06 20:31:00,
2013-02-06 14:01:00,55.0,36.0,-100.00,WSW,242,6.0,14.0,48,0.00,,,0.00,766.000000,,2013-02-06 21:01:00,
2013-02-06 14:11:00,55.0,36.0,-100.00,WSW,242,6.0,14.0,48,0.00,,,0.00,766.000000,,2013-02-06 21:11:00,
2013-02-06 14:21:00,55.0,36.0,-100.00,WSW,242,6.0,14.0,48,0.00,,,0.00,766.000000,,2013-02-06 21:21:00,
2013-02-06 14:31:00,55.0,36.0,-100.00,WSW,242,6.0,14.0,48,0.00,,,0.00,766.000000,,2013-02-06 21:31:00,
2013-02-06 15:01:00,51.0,33.0,-100.00,WSW,246,5.0,12.0,50,0.00,,,0.00,587.000000,,2013-02-06 22:01:00,
2013-02-06 15:11:00,51.0,33.0,-100.00,WSW,246,5.0,12.0,50,0.00,,,0.00,587.000000,,2013-02-06 22:11:00,
2013-02-06 15:21:00,51.0,33.0,-100.00,WSW,246,5.0,12.0,50,0.00,,,0.00,587.000000,,2013-02-06 22:21:00,
2013-02-06 15:31:00,51.0,33.0,-100.00,WSW,246,5.0,12.0,50,0.00,,,0.00,587.000000,,2013-02-06 22:31:00,
2013-02-06 16:01:00,52.0,33.0,-100.00,SW,234,6.0,13.0,48,0.00,,,0.00,518.000000,,2013-02-06 23:01:00,
2013-02-06 16:11:00,52.0,33.0,-100.00,SW,234,6.0,13.0,48,0.00,,,0.00,518.000000,,2013-02-06 23:11:00,
2013-02-06 16:21:00,52.0,33.0,-100.00,SW,234,6.0,13.0,48,0.00,,,0.00,518.000000,,2013-02-06 23:21:00,
2013-02-06 16:31:00,52.0,33.0,-100.00,SW,234,6.0,13.0,48,0.00,,,0.00,518.000000,,2013-02-06 23:31:00,
2013-02-06 17:01:00,49.0,32.0,-100.00,WSW,244,6.0,14.0,51,0.00,,,0.00,358.000000,,2013-02-07 00:01:00,
2013-02-06 17:11:00,49.0,32.0,-100.00,WSW,244,6.0,14.0,51,0.00,,,0.00,358.000000,,2013-02-07 00:11:00,
2013-02-06 17:21:00,49.0,32.0,-100.00,WSW,244,6.0,14.0,51,0.00,,,0.00,358.000000,,2013-02-07 00:21:00,
2013-02-06 17:31:00,49.0,32.0,-100.00,WSW,244,6.0,14.0,51,0.00,,,0.00,358.000000,,2013-02-07 00:31:00,
2013-02-06 18:01:00,40.0,31.0,-100.00,WSW,244,7.0,15.0,70,0.00,,,0.00,161.000000,,2013-02-07 01:01:00,
2013-02-06 18:11:00,40.0,31.0,-100.00,WSW,244,7.0,15.0,70,0.00,,,0.00,161.000000,,2013-02-07 01:11:00,
2013-02-06 18:21:00,40.0,31.0,-100.00,WSW,244,7.0,15.0,70,0.00,,,0.00,161.000000,,2013-02-07 01:21:00,
2013-02-06 18:31:00,40.0,31.0,-100.00,WSW,244,7.0,15.0,70,0.00,,,0.00,161.000000,,2013-02-07 01:31:00,
2013-02-06 18:52:00,37.0,30.0,-100.00,WSW,247,10.0,17.0,77,0.00,,,0.00,11.000000,,2013-02-07 01:52:00,
2013-02-06 19:01:00,37.0,30.0,-100.00,WSW,247,10.0,17.0,77,0.00,,,0.00,11.000000,,2013-02-07 02:01:00,
2013-02-06 19:11:00,37.0,30.0,-100.00,WSW,247,10.0,17.0,77,0.00,,,0.00,11.000000,,2013-02-07 02:11:00,
2013-02-06 19:21:00,37.0,30.0,-100.00,WSW,247,10.0,17.0,77,0.00,,,0.00,11.000000,,2013-02-07 02:21:00,
2013-02-06 19:31:00,37.0,30.0,-100.00,WSW,247,10.0,17.0,77,0.00,,,0.00,11.000000,,2013-02-07 02:31:00,
2013-02-06 20:02:00,36.0,29.0,-100.00,WSW,250,9.0,16.0,76,0.00,,,0.00,0.000000,,2013-02-07 03:02:00,
2013-02-06 20:11:00,36.0,29.0,-100.00,WSW,250,9.0,16.0,76,0.00,,,0.00,0.000000,,2013-02-07 03:11:00,
2013-02-06 20:21:00,36.0,29.0,-100.00,WSW,250,9.0,16.0,76,0.00,,,0.00,0.000000,,2013-02-07 03:21:00,
2013-02-06 20:31:00,36.0,29.0,-100.00,WSW,250,9.0,16.0,76,0.00,,,0.00,0.000000,,2013-02-07 03:31:00,
2013-02-06 21:01:00,35.0,29.0,-100.00,WSW,254,6.0,12.0,80,0.00,,,0.00,0.000000,,2013-02-07 04:01:00,
2013-02-06 21:11:00,35.0,29.0,-100.00,WSW,254,6.0,12.0,80,0.00,,,0.00,0.000000,,2013-02-07 04:11:00,
2013-02-06 21:22:00,35.0,29.0,-100.00,WSW,254,6.0,12.0,80,0.00,,,0.00,0.000000,,2013-02-07 04:22:00,
2013-02-06 21:31:00,35.0,29.0,-100.00,WSW,254,6.0,12.0,80,0.00,,,0.00,0.000000,,2013-02-07 04:31:00,
2013-02-06 22:01:00,35.0,29.0,-100.00,West,271,7.0,13.0,78,0.00,,,0.00,0.000000,,2013-02-07 05:01:00,
2013-02-06 22:11:00,35.0,29.0,-100.00,West,271,7.0,13.0,78,0.00,,,0.00,0.000000,,2013-02-07 05:11:00,
2013-02-06 22:21:00,35.0,29.0,-100.00,West,271,7.0,13.0,78,0.00,,,0.00,0.000000,,2013-02-07 05:21:00,
2013-02-06 22:32:00,35.0,29.0,-100.00,West,271,7.0,13.0,78,0.00,,,0.00,0.000000,,2013-02-07 05:32:00,
2013-02-06 23:02:00,35.0,29.0,-100.00,West,276,4.0,11.0,77,0.00,,,0.00,0.000000,,2013-02-07 06:02:00,
2013-02-06 23:11:00,35.0,29.0,-100.00,West,276,4.0,11.0,77,0.00,,,0.00,0.000000,,2013-02-07 06:11:00,
2013-02-06 23:22:00,35.0,29.0,-100.00,West,276,4.0,11.0,77,0.00,,,0.00,0.000000,,2013-02-07 06:22:00,
2013-02-06 23:31:00,35.0,29.0,-100.00,West,276,4.0,11.0,77,0.00,,,0.00,0.000000,,2013-02-07 06:31:00,
2013-02-06 23:52:00,34.0,27.0,-100.00,West,277,4.0,9.0,74,0.00,,,0.00,0.000000,,2013-02-07 06:52:00,